Time;durP1;ratioP1;P1;durP2;ratioP2;P2;SDS_P1;SDS_P2;PMS_P1;PMS_P2;Temp;Humidity;BMP_temperature;BMP_pressure;BME280_temperature;BME280_humidity;BME280_pressure;Samples;Min_cycle;Max_cycle;Signal;HPM_P1;HPM_P2
2021/07/03 00:01:08;;;;;;;12.48;6.18;;;;;;;19.17;94.04;101047.94;4960658;28;20027;-78
2021/07/03 00:03:33;;;;;;;12.93;6.35;;;;;;;19.09;94.56;101043.72;4946286;28;20058;-78
2021/07/03 00:05:59;;;;;;;11.30;6.28;;;;;;;19.02;94.97;101049.22;4937750;29;20031;-78
2021/07/03 00:08:27;;;;;;;10.55;6.45;;;;;;;19.01;95.11;101031.28;4946620;28;20560;-78
2021/07/03 00:10:57;;;;;;;14.77;6.72;;;;;;;18.98;95.29;101040.28;4957823;28;20035;-78
2021/07/03 00:13:22;;;;;;;11.27;5.95;;;;;;;19.03;95.32;101045.31;4952977;29;20042;-78
2021/07/03 00:15:48;;;;;;;9.68;6.60;;;;;;;19.04;95.42;101040.63;4947787;28;20035;-78
2021/07/03 00:18:13;;;;;;;10.45;6.40;;;;;;;18.93;95.52;101044.22;4962006;28;20109;-78
2021/07/03 00:20:40;;;;;;;12.88;6.50;;;;;;;18.91;95.79;101040.34;4938590;28;20127;-78
2021/07/03 00:23:05;;;;;;;11.07;6.97;;;;;;;18.91;95.63;101040.34;4934899;29;20035;-78
2021/07/03 00:25:31;;;;;;;10.38;6.68;;;;;;;18.83;96.06;101045.06;4935509;29;20027;-78
2021/07/03 00:27:57;;;;;;;14.25;6.68;;;;;;;18.80;96.07;101040.41;4958678;28;20043;-78
2021/07/03 00:30:22;;;;;;;11.50;6.53;;;;;;;18.74;96.21;101047.47;4954524;28;20035;-78
2021/07/03 00:32:50;;;;;;;11.27;6.93;;;;;;;18.69;96.29;101039.72;4955137;28;20102;-78
2021/07/03 00:35:16;;;;;;;11.60;6.90;;;;;;;18.70;95.96;101035.81;4952757;28;20098;-78
2021/07/03 00:37:42;;;;;;;8.85;6.50;;;;;;;18.65;96.43;101033.50;4940093;29;20071;-78
2021/07/03 00:40:08;;;;;;;12.32;6.82;;;;;;;18.58;96.42;101038.25;4932709;28;20418;-78
2021/07/03 00:42:33;;;;;;;11.10;6.90;;;;;;;18.57;96.42;101025.75;4959249;28;20101;-78
2021/07/03 00:45:00;;;;;;;9.85;6.90;;;;;;;18.48;97.39;101031.69;4956552;28;20482;-78
2021/07/03 00:47:25;;;;;;;9.82;7.30;;;;;;;18.48;97.52;101025.44;4963583;28;20401;-78
2021/07/03 00:49:51;;;;;;;10.68;7.13;;;;;;;18.48;96.93;101033.63;4950836;28;20045;-78
2021/07/03 00:52:16;;;;;;;9.63;7.05;;;;;;;18.43;97.18;101036.75;4949121;28;20490;-78
2021/07/03 00:54:44;;;;;;;12.77;7.15;;;;;;;18.33;97.42;101032.88;4913838;29;20497;-78
2021/07/03 00:57:16;;;;;;;9.15;6.32;;;;;;;18.30;97.66;101038.34;4930227;29;20086;-78
2021/07/03 00:59:46;;;;;;;12.75;6.85;;;;;;;18.31;97.92;101037.94;4933527;29;20046;-78
2021/07/03 01:02:21;;;;;;;12.00;6.85;;;;;;;18.32;98.08;101044.19;4929510;29;20023;-78
2021/07/03 01:04:47;;;;;;;9.10;6.30;;;;;;;18.25;98.38;101046.97;4933957;29;20090;-78
2021/07/03 01:07:16;;;;;;;13.52;6.97;;;;;;;18.21;98.39;101043.47;4949327;28;20883;-77
2021/07/03 01:09:43;;;;;;;10.55;8.07;;;;;;;18.20;98.44;101050.09;4960021;28;20516;-78
2021/07/03 01:12:10;;;;;;;10.65;6.93;;;;;;;18.15;98.28;101042.31;4955722;28;20493;-78
2021/07/03 01:14:43;;;;;;;10.25;6.88;;;;;;;18.10;98.04;101050.94;4944206;29;20077;-78
2021/07/03 01:17:11;;;;;;;10.80;6.82;;;;;;;18.13;97.81;101042.72;4947034;28;20049;-78
2021/07/03 01:19:38;;;;;;;13.05;7.70;;;;;;;18.08;98.10;101039.63;4936614;29;20039;-78
2021/07/03 01:22:12;;;;;;;11.13;7.38;;;;;;;18.02;98.43;101050.94;4939308;28;20409;-78
2021/07/03 01:24:39;;;;;;;13.40;7.15;;;;;;;17.98;98.86;101039.25;4939296;29;20042;-78
2021/07/03 01:27:07;;;;;;;11.02;6.15;;;;;;;17.91;98.84;101047.47;4953325;28;20086;-78
2021/07/03 01:29:38;;;;;;;12.32;6.97;;;;;;;17.85;98.98;101049.06;4944139;28;20069;-77
2021/07/03 01:32:04;;;;;;;8.18;6.57;;;;;;;17.87;98.82;101048.66;4940177;28;20156;-78
2021/07/03 01:34:34;;;;;;;20.55;6.97;;;;;;;17.84;98.79;101041.28;4948888;29;20090;-78
2021/07/03 01:37:01;;;;;;;13.27;7.00;;;;;;;17.85;99.22;101043.59;4952196;28;20035;-78
2021/07/03 01:39:30;;;;;;;11.52;6.93;;;;;;;17.78;99.00;101046.34;4954254;28;20059;-78
2021/07/03 01:41:56;;;;;;;10.27;6.38;;;;;;;17.77;98.66;101050.22;4961976;28;20460;-78
2021/07/03 01:44:29;;;;;;;9.45;6.88;;;;;;;17.76;98.74;101051.41;4952721;28;20529;-78
2021/07/03 01:46:58;;;;;;;9.82;7.38;;;;;;;17.71;98.81;101046.34;4959998;28;20035;-78
2021/07/03 01:49:25;;;;;;;13.40;7.40;;;;;;;17.71;99.07;101042.88;4930831;28;20038;-78
2021/07/03 01:51:51;;;;;;;11.70;7.57;;;;;;;17.75;99.38;101044.41;4953989;28;20098;-78
2021/07/03 01:54:18;;;;;;;8.77;6.78;;;;;;;17.71;99.12;101032.72;4999337;23;20126;-76
2021/07/03 01:56:58;;;;;;;11.48;7.22;;;;;;;17.70;99.17;101030.41;4927400;29;20059;-77
2021/07/03 01:59:33;;;;;;;10.43;7.45;;;;;;;17.59;99.56;101037.84;4930885;29;20482;-77
2021/07/03 02:02:04;;;;;;;13.02;7.85;;;;;;;17.52;99.65;101033.16;4910204;29;20035;-76
2021/07/03 02:04:34;;;;;;;12.55;8.07;;;;;;;17.50;100.00;101035.50;4934355;29;20027;-77
2021/07/03 02:07:02;;;;;;;13.07;7.80;;;;;;;17.48;100.00;101032.41;4927725;29;20446;-76
2021/07/03 02:09:31;;;;;;;14.00;8.50;;;;;;;17.44;100.00;101037.03;4929680;29;20038;-77
2021/07/03 02:12:02;;;;;;;15.23;7.70;;;;;;;17.43;100.00;101032.00;4928258;29;20083;-76
2021/07/03 02:14:37;;;;;;;9.57;7.35;;;;;;;17.44;100.00;101031.59;4908705;29;20032;-77
2021/07/03 02:17:14;;;;;;;12.88;7.63;;;;;;;17.42;99.99;101025.00;4930370;29;20556;-76
2021/07/03 02:19:41;;;;;;;14.82;7.22;;;;;;;17.38;99.94;101024.97;4919631;29;20039;-77
2021/07/03 02:22:09;;;;;;;13.95;8.02;;;;;;;17.34;100.00;101026.97;4928555;29;20553;-76
2021/07/03 02:24:43;;;;;;;10.18;7.38;;;;;;;17.29;100.00;101027.34;4914822;29;20035;-76
2021/07/03 02:27:09;;;;;;;14.15;7.53;;;;;;;17.27;99.97;101024.22;4935908;29;20123;-77
2021/07/03 02:29:37;;;;;;;13.05;7.78;;;;;;;17.23;100.00;101019.97;4940734;29;20046;-76
2021/07/03 02:32:03;;;;;;;15.07;7.88;;;;;;;17.23;100.00;101019.97;4930384;29;20437;-76
2021/07/03 02:34:30;;;;;;;10.93;7.90;;;;;;;17.28;100.00;101017.63;4903183;29;20035;-77
2021/07/03 02:36:56;;;;;;;12.15;8.40;;;;;;;17.19;100.00;101019.19;4932383;29;20087;-77
2021/07/03 02:39:22;;;;;;;13.07;8.52;;;;;;;17.20;100.00;101015.28;4936414;28;20115;-75
2021/07/03 02:41:51;;;;;;;12.73;8.38;;;;;;;17.15;100.00;101011.78;4935694;29;20047;-76
2021/07/03 02:44:17;;;;;;;11.85;8.52;;;;;;;17.10;100.00;101016.84;4923868;29;20031;-76
2021/07/03 02:46:44;;;;;;;13.75;8.82;;;;;;;17.12;100.00;101022.69;4921306;29;20493;-76
2021/07/03 02:49:11;;;;;;;16.13;8.05;;;;;;;17.08;100.00;101021.91;4947308;29;20045;-76
2021/07/03 02:51:37;;;;;;;13.25;8.82;;;;;;;17.06;100.00;101021.53;4934008;29;20467;-75
2021/07/03 02:54:03;;;;;;;16.33;9.00;;;;;;;17.03;100.00;101017.63;4931269;29;20453;-76
2021/07/03 02:56:30;;;;;;;15.02;9.02;;;;;;;17.07;100.00;101021.13;4934880;29;20406;-77
2021/07/03 02:58:57;;;;;;;12.63;9.40;;;;;;;17.05;100.00;101022.69;4931202;29;20031;-77
2021/07/03 03:01:23;;;;;;;15.30;9.18;;;;;;;17.04;100.00;101016.47;4933148;29;20489;-77
2021/07/03 03:03:49;;;;;;;14.98;9.18;;;;;;;16.99;100.00;101019.56;4933865;29;20036;-77
2021/07/03 03:06:15;;;;;;;17.10;9.80;;;;;;;17.03;100.00;101020.34;4918203;29;20035;-77
2021/07/03 03:08:44;;;;;;;16.10;9.05;;;;;;;17.02;100.00;101020.75;4943239;29;20035;-77
2021/07/03 03:11:12;;;;;;;14.65;9.55;;;;;;;17.05;100.00;101025.44;4903315;29;20490;-77
2021/07/03 03:13:39;;;;;;;16.65;9.35;;;;;;;17.01;100.00;101019.19;4919462;29;20071;-77
2021/07/03 03:16:06;;;;;;;18.92;8.70;;;;;;;17.02;100.00;101021.53;4903242;29;20038;-76
2021/07/03 03:18:32;;;;;;;15.75;8.68;;;;;;;16.93;100.00;101017.63;4908841;29;20028;-77
2021/07/03 03:20:57;;;;;;;15.30;9.30;;;;;;;16.97;100.00;101012.97;4938828;29;20159;-76
2021/07/03 03:23:23;;;;;;;15.23;9.95;;;;;;;16.94;100.00;101014.53;4927635;29;20043;-76
2021/07/03 03:25:49;;;;;;;18.20;10.73;;;;;;;16.95;100.00;101012.59;4933508;29;20028;-75
2021/07/03 03:28:17;;;;;;;17.25;10.95;;;;;;;16.94;100.00;101025.41;4897194;29;20028;-76
2021/07/03 03:30:43;;;;;;;18.85;11.05;;;;;;;16.91;100.00;101026.19;4936816;29;20024;-77
2021/07/03 03:33:14;;;;;;;18.90;11.00;;;;;;;16.94;100.00;101019.19;4940878;29;20107;-76
2021/07/03 03:35:41;;;;;;;14.88;9.95;;;;;;;16.94;100.00;101014.53;4917907;29;20039;-76
2021/07/03 03:38:07;;;;;;;18.52;11.60;;;;;;;16.94;100.00;101016.47;4918827;29;20062;-75
2021/07/03 03:40:34;;;;;;;15.75;10.95;;;;;;;16.85;100.00;101019.59;4931464;29;20036;-75
2021/07/03 03:43:01;;;;;;;21.58;12.18;;;;;;;16.86;100.00;101012.97;4934109;29;20069;-77
2021/07/03 03:45:28;;;;;;;21.10;11.70;;;;;;;16.85;100.00;101016.06;4936636;29;20493;-76
2021/07/03 03:47:58;;;;;;;21.65;12.23;;;;;;;16.88;100.00;101020.72;4911715;29;20035;-77
2021/07/03 03:50:24;;;;;;;21.75;11.68;;;;;;;16.95;100.00;101026.19;4933070;29;20024;-76
2021/07/03 03:52:49;;;;;;;20.73;12.23;;;;;;;17.04;100.00;101029.28;4923792;29;20035;-77
2021/07/03 03:55:15;;;;;;;27.58;13.13;;;;;;;17.04;100.00;101030.09;4938521;29;20031;-77
2021/07/03 03:57:41;;;;;;;19.75;13.38;;;;;;;17.03;100.00;101025.03;4898350;29;20066;-76
2021/07/03 04:00:13;;;;;;;19.27;12.55;;;;;;;17.07;100.00;101028.53;4898941;29;20035;-77
2021/07/03 04:02:42;;;;;;;21.77;13.15;;;;;;;17.09;100.00;101028.94;4931154;29;20130;-77
2021/07/03 04:05:09;;;;;;;22.88;13.40;;;;;;;17.15;100.00;101027.34;4915200;29;20097;-76
2021/07/03 04:07:36;;;;;;;24.15;14.15;;;;;;;17.18;100.00;101032.03;4936670;29;20450;-77
2021/07/03 04:10:07;;;;;;;24.05;13.70;;;;;;;17.24;100.00;101027.75;4923991;29;20028;-77
2021/07/03 04:12:38;;;;;;;23.48;13.15;;;;;;;17.33;100.00;101035.50;4935422;29;20027;-77
2021/07/03 04:15:05;;;;;;;27.30;13.73;;;;;;;17.36;100.00;101034.72;4933433;29;20075;-77
2021/07/03 04:17:30;;;;;;;21.63;12.48;;;;;;;17.39;100.00;101039.38;4916484;29;20043;-77
2021/07/03 04:19:56;;;;;;;26.98;14.00;;;;;;;17.44;100.00;101036.28;4933343;29;20474;-76
2021/07/03 04:22:21;;;;;;;22.05;13.82;;;;;;;17.56;100.00;101036.66;4930212;29;20398;-77
2021/07/03 04:24:47;;;;;;;19.48;13.68;;;;;;;17.59;100.00;101035.91;4922397;29;20414;-76
2021/07/03 04:27:13;;;;;;;22.65;13.48;;;;;;;17.61;100.00;101038.22;4932965;29;20506;-77
2021/07/03 04:29:38;;;;;;;29.00;14.43;;;;;;;17.75;100.00;101041.69;4929713;29;20036;-77
2021/07/03 04:32:04;;;;;;;22.08;14.07;;;;;;;17.74;100.00;101029.25;4937075;29;20086;-76
2021/07/03 04:34:30;;;;;;;23.90;13.93;;;;;;;17.72;100.00;101031.56;4930961;29;20087;-77
2021/07/03 04:36:56;;;;;;;23.48;13.90;;;;;;;17.74;100.00;101040.13;4938111;29;20069;-77
2021/07/03 04:39:22;;;;;;;21.80;13.02;;;;;;;17.72;100.00;101037.03;4936159;29;20027;-75
2021/07/03 04:41:48;;;;;;;25.95;13.98;;;;;;;17.75;100.00;101038.94;4930623;29;20035;-75
2021/07/03 04:44:14;;;;;;;25.33;14.10;;;;;;;17.89;100.00;101040.84;4935056;29;20037;-76
2021/07/03 04:46:40;;;;;;;24.33;13.02;;;;;;;17.92;100.00;101026.47;4930886;29;20032;-76
2021/07/03 04:49:06;;;;;;;26.90;12.95;;;;;;;18.03;100.00;101032.63;4918510;29;20122;-76
2021/07/03 04:51:31;;;;;;;28.13;13.45;;;;;;;18.04;100.00;101032.25;4921563;29;20108;-76
2021/07/03 04:53:58;;;;;;;22.13;12.73;;;;;;;18.11;100.00;101030.66;4933381;29;20028;-76
2021/07/03 04:56:24;;;;;;;21.30;13.13;;;;;;;18.13;100.00;101036.50;4932733;29;20036;-76
2021/07/03 04:58:49;;;;;;;23.00;13.15;;;;;;;18.14;100.00;101038.06;4928981;29;20036;-76
2021/07/03 05:01:15;;;;;;;21.80;12.90;;;;;;;18.32;100.00;101028.59;4914759;29;20043;-76
2021/07/03 05:03:40;;;;;;;24.67;13.02;;;;;;;18.37;100.00;101033.63;4935566;29;20042;-75
2021/07/03 05:06:06;;;;;;;22.75;12.80;;;;;;;18.49;100.00;101027.75;4941874;29;20048;-76
2021/07/03 05:08:35;;;;;;;25.08;13.68;;;;;;;18.58;100.00;101030.06;4938528;29;20061;-76
2021/07/03 05:11:00;;;;;;;21.98;12.65;;;;;;;18.56;100.00;101040.59;4939729;29;20074;-76
2021/07/03 05:13:26;;;;;;;20.80;12.88;;;;;;;18.60;100.00;101044.06;4931755;29;20114;-74
2021/07/03 05:15:52;;;;;;;21.35;13.20;;;;;;;18.60;100.00;101042.09;4937625;29;20035;-75
2021/07/03 05:18:18;;;;;;;22.08;12.60;;;;;;;18.58;100.00;101040.97;4920683;29;20403;-76
2021/07/03 05:20:43;;;;;;;22.50;13.25;;;;;;;18.71;100.00;101042.06;4931493;29;20039;-76
2021/07/03 05:23:09;;;;;;;21.48;13.50;;;;;;;18.75;100.00;101048.25;4943416;29;20087;-76
2021/07/03 05:25:34;;;;;;;25.92;14.30;;;;;;;18.59;100.00;101043.28;4915536;29;20055;-76
2021/07/03 05:28:00;;;;;;;20.38;12.95;;;;;;;18.63;100.00;101044.06;4918290;29;20043;-76
2021/07/03 05:30:25;;;;;;;22.50;14.43;;;;;;;18.75;100.00;101046.31;4930567;29;20036;-76
2021/07/03 05:32:51;;;;;;;22.85;13.20;;;;;;;19.52;100.00;101044.91;4940692;29;20457;-76
2021/07/03 05:35:16;;;;;;;22.73;13.27;;;;;;;20.01;98.21;101045.56;4938927;29;20389;-76
2021/07/03 05:37:43;;;;;;;18.25;11.93;;;;;;;19.85;97.62;101045.34;4931500;29;20642;-75
2021/07/03 05:40:11;;;;;;;23.13;13.52;;;;;;;20.01;97.48;101045.56;4938894;29;20039;-75
2021/07/03 05:42:37;;;;;;;20.40;11.77;;;;;;;20.05;97.37;101051.75;4912095;29;20123;-76
2021/07/03 05:45:04;;;;;;;20.90;12.23;;;;;;;20.16;97.35;101055.91;4931800;29;20371;-76
2021/07/03 05:47:31;;;;;;;20.65;13.40;;;;;;;20.27;96.37;101053.06;4928978;29;20079;-75
2021/07/03 05:49:56;;;;;;;17.50;12.20;;;;;;;20.94;94.56;101052.13;4925390;29;20135;-76
2021/07/03 05:52:22;;;;;;;18.25;11.48;;;;;;;21.59;91.43;101048.66;4939559;29;20118;-75
2021/07/03 05:54:47;;;;;;;16.80;10.63;;;;;;;22.26;86.37;101050.88;4915219;29;20110;-76
2021/07/03 05:57:13;;;;;;;16.42;9.32;;;;;;;22.59;84.05;101056.50;4915515;29;20035;-76
2021/07/03 05:59:40;;;;;;;12.98;7.57;;;;;;;23.03;81.06;101045.63;4923246;29;20138;-76
2021/07/03 06:02:05;;;;;;;13.23;8.38;;;;;;;23.01;79.71;101042.53;4930993;29;20067;-76
2021/07/03 06:04:31;;;;;;;15.20;8.25;;;;;;;22.98;79.98;101059.84;4920049;29;20465;-76
2021/07/03 06:06:56;;;;;;;14.13;7.13;;;;;;;23.16;79.59;101049.22;4922542;29;20043;-76
2021/07/03 06:09:22;;;;;;;9.43;7.15;;;;;;;23.46;78.65;101045.31;4939225;29;20043;-76
2021/07/03 06:11:48;;;;;;;10.30;6.57;;;;;;;23.60;78.11;101038.66;4936970;29;20024;-76
2021/07/03 06:14:14;;;;;;;10.60;6.20;;;;;;;23.54;76.53;101045.94;4940544;28;20479;-76
2021/07/03 06:16:39;;;;;;;7.82;5.90;;;;;;;23.20;76.26;101046.38;4936221;29;20380;-76
2021/07/03 06:19:05;;;;;;;14.85;7.43;;;;;;;22.81;77.21;101043.78;4934212;29;20039;-76
2021/07/03 06:21:31;;;;;;;11.10;6.07;;;;;;;22.38;81.04;101043.94;4955123;29;20031;-76
2021/07/03 06:23:56;;;;;;;8.70;5.45;;;;;;;22.50;82.01;101039.78;4919660;29;20403;-76
2021/07/03 06:26:22;;;;;;;8.68;5.25;;;;;;;22.82;81.36;101035.13;4931463;29;20047;-76
2021/07/03 06:28:48;;;;;;;8.45;4.82;;;;;;;23.12;79.33;101039.50;4938840;29;20039;-76
2021/07/03 06:31:14;;;;;;;7.53;4.43;;;;;;;22.95;78.43;101033.25;4932957;29;20122;-76
2021/07/03 06:33:40;;;;;;;8.00;4.68;;;;;;;22.63;78.52;101033.22;4933511;29;20044;-76
2021/07/03 06:36:05;;;;;;;5.82;4.35;;;;;;;22.28;79.06;101039.47;4935158;29;20499;-76
2021/07/03 06:38:30;;;;;;;7.88;4.43;;;;;;;21.96;81.08;101033.88;4934594;29;20058;-76
2021/07/03 06:40:56;;;;;;;6.45;4.70;;;;;;;21.66;82.64;101032.06;4916699;29;20034;-76
2021/07/03 06:43:22;;;;;;;11.18;5.13;;;;;;;21.70;83.40;101038.25;4920873;29;20031;-76
2021/07/03 06:45:47;;;;;;;9.57;4.55;;;;;;;21.60;84.04;101036.53;4926918;29;20413;-76
2021/07/03 06:48:12;;;;;;;11.00;4.97;;;;;;;21.52;85.01;101032.34;4924713;29;20082;-75
2021/07/03 06:50:38;;;;;;;9.05;4.30;;;;;;;21.37;85.72;101031.03;4943606;29;20066;-76
2021/07/03 06:53:04;;;;;;;8.95;4.95;;;;;;;21.25;86.58;101039.88;4942304;29;20039;-75
2021/07/03 06:55:29;;;;;;;6.82;4.28;;;;;;;21.15;85.61;101040.84;4919823;29;20070;-76
2021/07/03 06:57:55;;;;;;;10.95;4.40;;;;;;;21.02;85.55;101037.91;4939525;29;20039;-76
2021/07/03 07:00:20;;;;;;;9.95;4.80;;;;;;;20.96;85.98;101039.56;4949069;29;20582;-76
2021/07/03 07:02:47;;;;;;;7.10;4.18;;;;;;;21.03;86.73;101042.19;4930666;29;20414;-75
2021/07/03 07:05:13;;;;;;;7.53;4.07;;;;;;;21.11;86.50;101040.13;4945458;29;20112;-76
2021/07/03 07:07:38;;;;;;;13.52;4.57;;;;;;;21.21;84.68;101045.44;4936675;29;20447;-76
2021/07/03 07:10:05;;;;;;;8.75;4.72;;;;;;;21.14;86.13;101048.28;4944089;29;20097;-76
2021/07/03 07:12:30;;;;;;;8.15;4.53;;;;;;;21.18;86.47;101035.28;4944327;29;20055;-76
2021/07/03 07:14:56;;;;;;;5.95;4.15;;;;;;;21.20;86.02;101034.88;4938740;29;20380;-76
2021/07/03 07:17:22;;;;;;;8.18;4.32;;;;;;;21.25;85.38;101032.41;4934245;29;20454;-76
2021/07/03 07:19:48;;;;;;;6.05;3.78;;;;;;;21.29;85.62;101035.88;4933475;29;20063;-76
2021/07/03 07:22:14;;;;;;;7.15;4.03;;;;;;;21.31;83.60;101038.22;4933305;29;20074;-76
2021/07/03 07:24:39;;;;;;;9.70;3.78;;;;;;;21.34;82.03;101040.13;4932936;29;20043;-76
2021/07/03 07:27:05;;;;;;;6.32;4.07;;;;;;;21.20;83.84;101038.38;4932237;29;20418;-76
2021/07/03 07:29:30;;;;;;;6.47;3.70;;;;;;;21.18;84.60;101040.00;4934763;29;20047;-76
2021/07/03 07:31:56;;;;;;;6.28;3.78;;;;;;;21.28;84.28;101039.03;4932005;29;20512;-76
2021/07/03 07:34:21;;;;;;;5.55;3.72;;;;;;;21.27;85.30;101038.25;4944131;29;20032;-76
2021/07/03 07:36:47;;;;;;;4.88;3.75;;;;;;;21.46;83.98;101043.03;4894975;29;20032;-76
2021/07/03 07:39:12;;;;;;;8.93;4.00;;;;;;;21.53;83.16;101037.41;4922449;29;20035;-76
2021/07/03 07:41:38;;;;;;;10.88;4.22;;;;;;;21.55;84.12;101035.03;4916152;29;20027;-76
2021/07/03 07:44:04;;;;;;;6.40;3.72;;;;;;;21.67;81.84;101033.63;4933101;29;20079;-76
2021/07/03 07:46:29;;;;;;;6.00;3.58;;;;;;;21.55;82.38;101040.50;4946174;29;20163;-76
2021/07/03 07:48:57;;;;;;;8.32;3.67;;;;;;;21.47;83.29;101035.56;4914316;29;20039;-77
2021/07/03 07:51:23;;;;;;;7.68;4.10;;;;;;;21.37;85.07;101039.25;4930937;29;20099;-76
2021/07/03 07:53:51;;;;;;;8.35;3.72;;;;;;;21.52;84.26;101044.06;5029322;23;20019;-78
2021/07/03 07:56:19;;;;;;;6.40;3.80;;;;;;;21.66;84.06;101042.28;4955951;28;20054;-78
2021/07/03 07:58:48;;;;;;;6.82;3.50;;;;;;;21.71;82.03;101044.53;4935996;29;20102;-77
2021/07/03 08:01:14;;;;;;;7.35;3.95;;;;;;;21.72;82.17;101035.88;4945304;29;20124;-77
2021/07/03 08:03:42;;;;;;;6.88;3.95;;;;;;;21.76;81.14;101035.81;4954134;28;20042;-78
2021/07/03 08:06:08;;;;;;;8.38;3.78;;;;;;;21.60;82.05;101036.53;4945461;29;20035;-77
2021/07/03 08:08:34;;;;;;;4.72;3.80;;;;;;;21.48;82.88;101029.69;4935466;29;20413;-78
2021/07/03 08:10:59;;;;;;;8.48;3.95;;;;;;;21.62;83.12;101030.59;4920428;28;20130;-78
2021/07/03 08:13:25;;;;;;;6.05;3.60;;;;;;;21.89;82.39;101028.53;4939810;29;20094;-75
2021/07/03 08:15:50;;;;;;;5.38;3.28;;;;;;;22.08;80.03;101030.50;4952627;28;20520;-77
2021/07/03 08:18:19;;;;;;;4.35;3.40;;;;;;;22.27;77.52;101026.94;4935695;29;20101;-78
2021/07/03 08:20:44;;;;;;;6.00;3.20;;;;;;;22.36;76.82;101025.16;4945473;29;20469;-78
2021/07/03 08:23:10;;;;;;;5.60;3.15;;;;;;;22.28;76.93;101021.03;4953048;28;20067;-78
2021/07/03 08:25:35;;;;;;;10.10;3.50;;;;;;;22.18;77.85;101022.03;4941790;29;20047;-78
2021/07/03 08:28:01;;;;;;;6.00;3.60;;;;;;;22.22;78.02;101024.72;4937833;29;20035;-78
2021/07/03 08:30:28;;;;;;;5.78;3.50;;;;;;;22.05;79.54;101023.09;4954498;29;20553;-77
2021/07/03 08:32:54;;;;;;;4.90;3.50;;;;;;;21.88;79.52;101021.50;4947571;28;20035;-78
2021/07/03 08:35:20;;;;;;;8.40;4.13;;;;;;;21.86;81.60;101032.13;4951740;28;20049;-78
2021/07/03 08:37:47;;;;;;;7.45;4.10;;;;;;;21.89;80.35;101026.56;4932195;29;20028;-78
2021/07/03 08:40:14;;;;;;;6.93;3.72;;;;;;;22.14;79.68;101020.56;4954786;28;20035;-78
2021/07/03 08:42:40;;;;;;;5.97;3.67;;;;;;;22.28;78.19;101025.72;4945205;29;20118;-78
2021/07/03 08:45:07;;;;;;;10.75;4.35;;;;;;;22.29;78.45;101019.06;4953399;28;20078;-77
2021/07/03 08:47:33;;;;;;;5.20;3.22;;;;;;;22.47;79.45;101018.66;4933981;28;20030;-78
2021/07/03 08:50:01;;;;;;;7.40;3.58;;;;;;;22.81;77.55;101021.81;4954608;28;20046;-79
2021/07/03 08:52:27;;;;;;;6.85;4.05;;;;;;;22.91;75.24;101021.56;4954461;29;20029;-78
2021/07/03 08:55:19;;;;;;;4.68;3.33;;;;;;;22.77;75.23;101013.66;4951811;28;20035;-78
2021/07/03 08:57:54;;;;;;;5.63;3.67;;;;;;;22.97;73.90;101011.63;4945484;29;20027;-78
2021/07/03 09:00:31;;;;;;;5.63;3.85;;;;;;;23.24;73.70;101005.81;4954455;28;20079;-77
2021/07/03 09:02:57;;;;;;;6.90;3.28;;;;;;;23.43;74.47;101001.41;4937000;28;20031;-78
2021/07/03 09:05:31;;;;;;;5.68;3.45;;;;;;;23.76;71.54;100992.63;4954606;28;20049;-78
2021/07/03 09:07:59;;;;;;;19.38;4.55;;;;;;;23.87;71.26;100992.31;4952103;29;20042;-78
2021/07/03 09:10:25;;;;;;;10.77;4.05;;;;;;;23.93;70.53;100996.06;4951985;29;20062;-77
2021/07/03 09:12:53;;;;;;;4.45;3.30;;;;;;;23.55;71.01;101015.22;4935990;29;20031;-77
2021/07/03 09:15:24;;;;;;;5.50;3.28;;;;;;;23.46;71.47;101011.56;4935893;29;20031;-78
2021/07/03 09:18:01;;;;;;;5.03;3.50;;;;;;;23.18;72.25;101008.31;4935715;29;20040;-78
2021/07/03 09:20:51;;;;;;;5.88;3.13;;;;;;;22.98;73.19;100999.41;4950048;28;20117;-78
2021/07/03 09:23:20;;;;;;;6.53;3.80;;;;;;;23.03;73.74;101001.66;4941237;28;20066;-78
2021/07/03 09:25:51;;;;;;;6.35;3.50;;;;;;;23.05;75.45;101007.47;4939403;29;20050;-78
2021/07/03 09:28:18;;;;;;;4.30;3.63;;;;;;;23.06;74.89;100994.50;4946228;28;20037;-78
2021/07/03 09:30:46;;;;;;;5.45;3.53;;;;;;;23.19;74.61;100996.13;4961608;28;20034;-78
2021/07/03 09:33:36;;;;;;;5.13;3.20;;;;;;;23.43;74.87;100988.44;4937591;28;20708;-78
2021/07/03 09:36:03;;;;;;;2.92;2.53;;;;;;;23.79;71.75;100977.25;4935939;29;20517;-76
2021/07/03 09:38:50;;;;;;;4.85;2.90;;;;;;;24.04;69.73;100991.06;4953530;28;20039;-78
2021/07/03 09:41:18;;;;;;;5.32;3.15;;;;;;;24.36;66.75;100985.38;4916744;29;20033;-77
2021/07/03 09:43:50;;;;;;;7.07;3.10;;;;;;;24.62;63.78;100983.38;4938153;29;20031;-78
2021/07/03 09:46:26;;;;;;;3.67;2.67;;;;;;;24.78;64.90;100983.25;4954309;28;20489;-77
2021/07/03 09:48:54;;;;;;;4.10;2.65;;;;;;;24.85;61.98;100983.03;4948076;28;20090;-78
2021/07/03 09:51:30;;;;;;;4.10;3.00;;;;;;;24.62;64.90;100988.88;4931032;29;20398;-77
2021/07/03 09:53:58;;;;;;;6.13;2.90;;;;;;;24.50;64.54;100995.94;4950871;28;20094;-78
2021/07/03 09:56:24;;;;;;;4.22;3.05;;;;;;;24.36;67.08;100979.84;4953972;28;20520;-78
2021/07/03 09:58:50;;;;;;;3.85;2.90;;;;;;;24.58;65.83;100980.75;4919502;29;20058;-78
2021/07/03 10:01:15;;;;;;;3.53;2.65;;;;;;;24.87;67.21;100997.91;4948962;29;20067;-78
2021/07/03 10:03:42;;;;;;;4.55;3.00;;;;;;;24.84;64.76;100993.28;4932286;29;20469;-77
2021/07/03 10:06:13;;;;;;;5.43;3.25;;;;;;;24.96;63.47;100991.72;4935615;29;20047;-78
2021/07/03 10:08:42;;;;;;;5.47;3.47;;;;;;;25.09;61.53;100984.19;4934814;29;20047;-77
2021/07/03 10:11:10;;;;;;;8.35;3.75;;;;;;;25.22;58.68;100975.88;4933354;28;20405;-77
2021/07/03 10:13:39;;;;;;;6.32;3.47;;;;;;;25.07;59.37;100978.34;4950399;28;20110;-78
2021/07/03 10:16:08;;;;;;;4.40;2.80;;;;;;;24.95;60.71;100974.41;4932476;29;20110;-77
2021/07/03 10:18:34;;;;;;;5.35;2.70;;;;;;;24.98;59.90;100976.28;4954350;29;20047;-76
2021/07/03 10:21:08;;;;;;;5.70;2.83;;;;;;;24.83;63.02;100977.97;4933849;29;20034;-78
2021/07/03 10:23:38;;;;;;;3.40;2.53;;;;;;;24.85;64.54;100978.28;4934435;29;20028;-77
2021/07/03 10:26:04;;;;;;;4.82;2.80;;;;;;;24.97;64.46;100971.97;4947274;29;20097;-77
2021/07/03 10:28:33;;;;;;;6.43;2.90;;;;;;;25.14;61.52;100978.09;4933983;29;20066;-77
2021/07/03 10:31:17;;;;;;;8.07;2.70;;;;;;;25.14;63.16;100972.59;4931618;28;20046;-78
2021/07/03 10:33:48;;;;;;;3.67;2.40;;;;;;;25.30;62.24;100983.44;4949188;28;20397;-78
2021/07/03 10:36:25;;;;;;;5.50;2.55;;;;;;;25.11;62.11;100978.22;4951176;29;20073;-77
2021/07/03 10:38:50;;;;;;;3.35;2.55;;;;;;;25.03;62.34;100977.69;4926645;29;20043;-78
2021/07/03 10:41:33;;;;;;;4.78;3.25;;;;;;;25.14;61.17;100980.09;4939343;28;20047;-76
2021/07/03 10:44:04;;;;;;;5.57;2.80;;;;;;;24.84;62.09;100982.25;4929818;28;20039;-78
2021/07/03 10:46:35;;;;;;;4.60;2.83;;;;;;;24.92;62.77;100978.06;4952156;28;20034;-78
2021/07/03 10:49:14;;;;;;;4.25;2.72;;;;;;;25.18;64.08;100972.47;4932464;29;20040;-78
2021/07/03 10:51:44;;;;;;;3.83;2.55;;;;;;;25.38;62.82;100981.19;4951124;29;20043;-78
2021/07/03 10:54:19;;;;;;;4.43;2.38;;;;;;;25.60;61.13;100971.75;4950193;28;20035;-78
2021/07/03 10:56:46;;;;;;;3.10;2.40;;;;;;;25.66;62.00;100969.19;4952714;29;20059;-78
2021/07/03 10:59:15;;;;;;;2.88;2.60;;;;;;;25.57;60.60;100972.63;4946769;28;20039;-78
2021/07/03 11:01:40;;;;;;;4.03;2.50;;;;;;;25.70;59.58;100980.88;4950774;28;20517;-78
2021/07/03 11:04:18;;;;;;;2.80;2.17;;;;;;;25.82;59.87;100971.75;4921572;29;20069;-76
2021/07/03 11:06:49;;;;;;;3.03;2.40;;;;;;;26.08;58.91;100970.38;4933935;29;20383;-78
2021/07/03 11:09:29;;;;;;;2.65;2.33;;;;;;;26.13;57.38;100972.53;4918025;29;20040;-78
2021/07/03 11:12:09;;;;;;;3.92;2.40;;;;;;;26.35;57.86;100973.25;4935976;29;20118;-78
2021/07/03 11:14:39;;;;;;;3.15;2.30;;;;;;;26.55;58.10;100970.88;4950114;28;20043;-77
2021/07/03 11:17:05;;;;;;;3.20;2.30;;;;;;;26.37;57.67;100970.81;4954420;28;20046;-78
2021/07/03 11:19:30;;;;;;;2.78;2.25;;;;;;;26.72;59.21;100972.16;4940359;29;20027;-78